sensor_id;sensor_type;location;lat;lon;timestamp;P1;durP1;ratioP1;P2;durP2;ratioP2
80247;SDS011;69560;52.206;21.018;2023-11-21T00:00:56;25.90;;;17.40;;
80247;SDS011;69560;52.206;21.018;2023-11-21T00:03:37;26.90;;;19.00;;
80247;SDS011;69560;52.206;21.018;2023-11-21T00:06:04;26.00;;;17.90;;
80247;SDS011;69560;52.206;21.018;2023-11-21T00:08:35;25.80;;;17.40;;
80247;SDS011;69560;52.206;21.018;2023-11-21T00:11:03;29.60;;;19.30;;
80247;SDS011;69560;52.206;21.018;2023-11-21T00:14:31;26.00;;;18.20;;
80247;SDS011;69560;52.206;21.018;2023-11-21T00:16:58;29.00;;;20.50;;
80247;SDS011;69560;52.206;21.018;2023-11-21T00:19:25;29.50;;;20.60;;
80247;SDS011;69560;52.206;21.018;2023-11-21T00:21:51;29.30;;;20.30;;
80247;SDS011;69560;52.206;21.018;2023-11-21T00:24:18;31.30;;;20.70;;
80247;SDS011;69560;52.206;21.018;2023-11-21T00:26:45;32.50;;;22.80;;
80247;SDS011;69560;52.206;21.018;2023-11-21T00:29:11;38.50;;;25.30;;
80247;SDS011;69560;52.206;21.018;2023-11-21T00:31:38;39.70;;;26.40;;
80247;SDS011;69560;52.206;21.018;2023-11-21T00:34:05;40.80;;;27.20;;
80247;SDS011;69560;52.206;21.018;2023-11-21T00:36:35;36.20;;;25.00;;
80247;SDS011;69560;52.206;21.018;2023-11-21T00:39:03;39.20;;;25.80;;
80247;SDS011;69560;52.206;21.018;2023-11-21T00:41:32;35.80;;;23.80;;
80247;SDS011;69560;52.206;21.018;2023-11-21T00:44:00;37.80;;;23.40;;
80247;SDS011;69560;52.206;21.018;2023-11-21T00:46:36;39.40;;;24.30;;
80247;SDS011;69560;52.206;21.018;2023-11-21T00:49:03;34.40;;;22.90;;
80247;SDS011;69560;52.206;21.018;2023-11-21T00:51:32;37.90;;;25.50;;
80247;SDS011;69560;52.206;21.018;2023-11-21T00:53:59;37.50;;;25.00;;
80247;SDS011;69560;52.206;21.018;2023-11-21T00:56:26;42.20;;;27.20;;
80247;SDS011;69560;52.206;21.018;2023-11-21T01:01:33;35.50;;;24.70;;
80247;SDS011;69560;52.206;21.018;2023-11-21T01:03:59;35.40;;;22.10;;
80247;SDS011;69560;52.206;21.018;2023-11-21T01:06:26;29.90;;;20.30;;
80247;SDS011;69560;52.206;21.018;2023-11-21T01:08:53;29.00;;;20.40;;
80247;SDS011;69560;52.206;21.018;2023-11-21T01:11:19;26.10;;;18.30;;
80247;SDS011;69560;52.206;21.018;2023-11-21T01:13:46;25.30;;;18.10;;
80247;SDS011;69560;52.206;21.018;2023-11-21T01:19:03;75.10;;;47.10;;
80247;SDS011;69560;52.206;21.018;2023-11-21T01:21:32;42.40;;;28.80;;
80247;SDS011;69560;52.206;21.018;2023-11-21T01:24:00;32.20;;;21.00;;
80247;SDS011;69560;52.206;21.018;2023-11-21T01:26:33;28.20;;;19.70;;
80247;SDS011;69560;52.206;21.018;2023-11-21T01:29:09;30.40;;;21.00;;
80247;SDS011;69560;52.206;21.018;2023-11-21T01:32:03;29.30;;;20.00;;
80247;SDS011;69560;52.206;21.018;2023-11-21T01:34:35;30.40;;;21.40;;
80247;SDS011;69560;52.206;21.018;2023-11-21T01:37:05;28.50;;;20.10;;
80247;SDS011;69560;52.206;21.018;2023-11-21T01:39:34;29.40;;;20.90;;
80247;SDS011;69560;52.206;21.018;2023-11-21T01:42:02;30.90;;;21.00;;
80247;SDS011;69560;52.206;21.018;2023-11-21T01:44:29;30.10;;;20.50;;
80247;SDS011;69560;52.206;21.018;2023-11-21T01:46:59;29.00;;;19.50;;
80247;SDS011;69560;52.206;21.018;2023-11-21T01:49:26;27.60;;;19.50;;
80247;SDS011;69560;52.206;21.018;2023-11-21T01:52:08;30.60;;;19.40;;
80247;SDS011;69560;52.206;21.018;2023-11-21T01:54:34;26.70;;;18.80;;
80247;SDS011;69560;52.206;21.018;2023-11-21T01:57:03;26.20;;;19.10;;
80247;SDS011;69560;52.206;21.018;2023-11-21T01:59:37;28.60;;;20.70;;
80247;SDS011;69560;52.206;21.018;2023-11-21T02:02:10;27.70;;;20.20;;
80247;SDS011;69560;52.206;21.018;2023-11-21T02:07:35;31.30;;;21.00;;
80247;SDS011;69560;52.206;21.018;2023-11-21T02:10:05;28.20;;;20.20;;
80247;SDS011;69560;52.206;21.018;2023-11-21T02:12:32;31.00;;;21.80;;
80247;SDS011;69560;52.206;21.018;2023-11-21T02:15:08;29.10;;;19.60;;
80247;SDS011;69560;52.206;21.018;2023-11-21T02:17:50;25.30;;;18.90;;
80247;SDS011;69560;52.206;21.018;2023-11-21T02:20:22;27.60;;;18.60;;
80247;SDS011;69560;52.206;21.018;2023-11-21T02:22:51;27.80;;;18.50;;
80247;SDS011;69560;52.206;21.018;2023-11-21T02:25:29;29.80;;;19.60;;
80247;SDS011;69560;52.206;21.018;2023-11-21T02:28:02;26.00;;;19.30;;
80247;SDS011;69560;52.206;21.018;2023-11-21T02:30:32;28.30;;;19.90;;
80247;SDS011;69560;52.206;21.018;2023-11-21T02:32:58;30.20;;;21.40;;
80247;SDS011;69560;52.206;21.018;2023-11-21T02:35:27;28.40;;;21.30;;
80247;SDS011;69560;52.206;21.018;2023-11-21T02:37:54;27.60;;;20.20;;
80247;SDS011;69560;52.206;21.018;2023-11-21T02:40:21;29.00;;;21.60;;
80247;SDS011;69560;52.206;21.018;2023-11-21T02:42:47;27.60;;;19.80;;
80247;SDS011;69560;52.206;21.018;2023-11-21T02:45:14;29.50;;;20.60;;
80247;SDS011;69560;52.206;21.018;2023-11-21T02:47:44;29.40;;;20.00;;
80247;SDS011;69560;52.206;21.018;2023-11-21T02:50:11;26.40;;;19.00;;
80247;SDS011;69560;52.206;21.018;2023-11-21T02:52:38;26.30;;;18.70;;
80247;SDS011;69560;52.206;21.018;2023-11-21T02:55:07;26.30;;;19.30;;
80247;SDS011;69560;52.206;21.018;2023-11-21T02:57:37;27.40;;;19.30;;
80247;SDS011;69560;52.206;21.018;2023-11-21T03:00:04;28.30;;;19.90;;
80247;SDS011;69560;52.206;21.018;2023-11-21T03:02:47;29.70;;;19.90;;
80247;SDS011;69560;52.206;21.018;2023-11-21T03:05:14;25.60;;;19.10;;
80247;SDS011;69560;52.206;21.018;2023-11-21T03:07:40;31.40;;;20.70;;
80247;SDS011;69560;52.206;21.018;2023-11-21T03:10:07;29.60;;;21.20;;
80247;SDS011;69560;52.206;21.018;2023-11-21T03:12:40;40.60;;;31.50;;
80247;SDS011;69560;52.206;21.018;2023-11-21T03:15:09;64.60;;;39.00;;
80247;SDS011;69560;52.206;21.018;2023-11-21T03:17:36;33.00;;;22.50;;
80247;SDS011;69560;52.206;21.018;2023-11-21T03:20:11;27.60;;;19.40;;
80247;SDS011;69560;52.206;21.018;2023-11-21T03:22:38;26.10;;;18.70;;
80247;SDS011;69560;52.206;21.018;2023-11-21T03:25:05;25.20;;;17.20;;
80247;SDS011;69560;52.206;21.018;2023-11-21T03:27:36;24.40;;;17.60;;
80247;SDS011;69560;52.206;21.018;2023-11-21T03:30:08;25.70;;;18.10;;
80247;SDS011;69560;52.206;21.018;2023-11-21T03:32:37;28.30;;;18.30;;
80247;SDS011;69560;52.206;21.018;2023-11-21T03:35:05;27.10;;;19.70;;
80247;SDS011;69560;52.206;21.018;2023-11-21T03:37:32;28.40;;;20.30;;
80247;SDS011;69560;52.206;21.018;2023-11-21T03:39:58;29.40;;;19.10;;
80247;SDS011;69560;52.206;21.018;2023-11-21T03:42:25;27.20;;;20.30;;
80247;SDS011;69560;52.206;21.018;2023-11-21T03:45:10;28.50;;;19.90;;
80247;SDS011;69560;52.206;21.018;2023-11-21T03:47:38;30.40;;;20.30;;
80247;SDS011;69560;52.206;21.018;2023-11-21T03:50:08;26.10;;;19.30;;
80247;SDS011;69560;52.206;21.018;2023-11-21T03:52:35;28.00;;;19.30;;
80247;SDS011;69560;52.206;21.018;2023-11-21T03:55:03;24.40;;;18.30;;
80247;SDS011;69560;52.206;21.018;2023-11-21T03:57:30;24.70;;;18.20;;
80247;SDS011;69560;52.206;21.018;2023-11-21T03:59:57;25.80;;;18.00;;
80247;SDS011;69560;52.206;21.018;2023-11-21T04:02:23;25.30;;;18.30;;
80247;SDS011;69560;52.206;21.018;2023-11-21T04:04:52;26.50;;;17.60;;
80247;SDS011;69560;52.206;21.018;2023-11-21T04:10:10;28.10;;;19.40;;
80247;SDS011;69560;52.206;21.018;2023-11-21T04:12:40;24.00;;;17.60;;
80247;SDS011;69560;52.206;21.018;2023-11-21T04:15:07;22.00;;;17.20;;
80247;SDS011;69560;52.206;21.018;2023-11-21T04:17:38;22.80;;;16.40;;
80247;SDS011;69560;52.206;21.018;2023-11-21T04:20:25;25.50;;;17.40;;
80247;SDS011;69560;52.206;21.018;2023-11-21T04:23:11;24.70;;;17.60;;
80247;SDS011;69560;52.206;21.018;2023-11-21T04:25:39;27.90;;;19.60;;
80247;SDS011;69560;52.206;21.018;2023-11-21T04:28:09;26.30;;;18.30;;
80247;SDS011;69560;52.206;21.018;2023-11-21T04:30:37;25.90;;;17.20;;
80247;SDS011;69560;52.206;21.018;2023-11-21T04:33:19;22.00;;;16.50;;
80247;SDS011;69560;52.206;21.018;2023-11-21T04:35:47;23.20;;;16.40;;
80247;SDS011;69560;52.206;21.018;2023-11-21T04:38:17;22.60;;;15.60;;
80247;SDS011;69560;52.206;21.018;2023-11-21T04:40:53;24.40;;;15.80;;
80247;SDS011;69560;52.206;21.018;2023-11-21T04:43:21;22.80;;;17.00;;
80247;SDS011;69560;52.206;21.018;2023-11-21T04:45:50;23.10;;;16.70;;
80247;SDS011;69560;52.206;21.018;2023-11-21T04:48:17;19.30;;;15.30;;
80247;SDS011;69560;52.206;21.018;2023-11-21T04:50:44;20.90;;;15.70;;
80247;SDS011;69560;52.206;21.018;2023-11-21T04:53:11;21.00;;;16.20;;
80247;SDS011;69560;52.206;21.018;2023-11-21T04:55:40;22.40;;;15.10;;
80247;SDS011;69560;52.206;21.018;2023-11-21T04:58:07;20.80;;;15.80;;
80247;SDS011;69560;52.206;21.018;2023-11-21T05:00:39;21.40;;;15.80;;
80247;SDS011;69560;52.206;21.018;2023-11-21T05:03:11;21.40;;;16.60;;
80247;SDS011;69560;52.206;21.018;2023-11-21T05:05:38;21.10;;;15.60;;
80247;SDS011;69560;52.206;21.018;2023-11-21T05:08:04;18.30;;;14.60;;
80247;SDS011;69560;52.206;21.018;2023-11-21T05:10:31;19.80;;;15.10;;
80247;SDS011;69560;52.206;21.018;2023-11-21T05:15:37;21.40;;;16.10;;
80247;SDS011;69560;52.206;21.018;2023-11-21T05:18:05;19.30;;;15.00;;
80247;SDS011;69560;52.206;21.018;2023-11-21T05:20:32;19.90;;;14.70;;
80247;SDS011;69560;52.206;21.018;2023-11-21T05:22:59;19.60;;;15.00;;
80247;SDS011;69560;52.206;21.018;2023-11-21T05:25:26;22.30;;;15.60;;
80247;SDS011;69560;52.206;21.018;2023-11-21T05:27:52;21.80;;;15.10;;
80247;SDS011;69560;52.206;21.018;2023-11-21T05:30:21;23.30;;;15.00;;
80247;SDS011;69560;52.206;21.018;2023-11-21T05:32:48;19.10;;;14.00;;
80247;SDS011;69560;52.206;21.018;2023-11-21T05:35:15;20.40;;;14.80;;
80247;SDS011;69560;52.206;21.018;2023-11-21T05:37:42;21.30;;;13.90;;
80247;SDS011;69560;52.206;21.018;2023-11-21T05:40:09;18.20;;;13.30;;
80247;SDS011;69560;52.206;21.018;2023-11-21T05:42:38;17.70;;;13.00;;
80247;SDS011;69560;52.206;21.018;2023-11-21T05:48:12;15.60;;;12.80;;
80247;SDS011;69560;52.206;21.018;2023-11-21T05:50:39;16.00;;;11.80;;
80247;SDS011;69560;52.206;21.018;2023-11-21T05:53:05;16.20;;;12.10;;
80247;SDS011;69560;52.206;21.018;2023-11-21T05:55:32;14.50;;;11.00;;
80247;SDS011;69560;52.206;21.018;2023-11-21T05:57:59;16.10;;;11.40;;
80247;SDS011;69560;52.206;21.018;2023-11-21T06:00:26;17.50;;;13.00;;
80247;SDS011;69560;52.206;21.018;2023-11-21T06:02:54;15.90;;;11.70;;
80247;SDS011;69560;52.206;21.018;2023-11-21T06:05:21;16.60;;;12.70;;
80247;SDS011;69560;52.206;21.018;2023-11-21T06:07:50;16.80;;;12.80;;
80247;SDS011;69560;52.206;21.018;2023-11-21T06:10:19;17.40;;;12.80;;
80247;SDS011;69560;52.206;21.018;2023-11-21T06:12:47;16.80;;;12.40;;
80247;SDS011;69560;52.206;21.018;2023-11-21T06:15:14;18.80;;;11.90;;
80247;SDS011;69560;52.206;21.018;2023-11-21T06:17:41;14.70;;;12.10;;
80247;SDS011;69560;52.206;21.018;2023-11-21T06:20:41;16.10;;;11.70;;
80247;SDS011;69560;52.206;21.018;2023-11-21T06:23:07;16.00;;;12.00;;
80247;SDS011;69560;52.206;21.018;2023-11-21T06:25:44;15.30;;;11.50;;
80247;SDS011;69560;52.206;21.018;2023-11-21T06:28:11;17.10;;;12.20;;
80247;SDS011;69560;52.206;21.018;2023-11-21T06:30:44;19.30;;;11.40;;
80247;SDS011;69560;52.206;21.018;2023-11-21T06:33:11;18.40;;;12.50;;
80247;SDS011;69560;52.206;21.018;2023-11-21T06:35:38;14.60;;;11.40;;
80247;SDS011;69560;52.206;21.018;2023-11-21T06:38:04;17.30;;;12.50;;
80247;SDS011;69560;52.206;21.018;2023-11-21T06:40:31;16.40;;;12.60;;
80247;SDS011;69560;52.206;21.018;2023-11-21T06:42:59;18.30;;;12.70;;
80247;SDS011;69560;52.206;21.018;2023-11-21T06:45:31;19.40;;;12.80;;
80247;SDS011;69560;52.206;21.018;2023-11-21T06:47:58;16.00;;;12.80;;
80247;SDS011;69560;52.206;21.018;2023-11-21T06:50:24;15.50;;;11.50;;
80247;SDS011;69560;52.206;21.018;2023-11-21T06:52:51;17.60;;;12.80;;
80247;SDS011;69560;52.206;21.018;2023-11-21T06:55:17;14.90;;;12.00;;
80247;SDS011;69560;52.206;21.018;2023-11-21T06:57:44;16.00;;;12.30;;
80247;SDS011;69560;52.206;21.018;2023-11-21T07:00:17;16.80;;;11.60;;
80247;SDS011;69560;52.206;21.018;2023-11-21T07:02:46;17.10;;;12.20;;
80247;SDS011;69560;52.206;21.018;2023-11-21T07:05:12;14.40;;;11.20;;
80247;SDS011;69560;52.206;21.018;2023-11-21T07:07:40;17.50;;;11.30;;
80247;SDS011;69560;52.206;21.018;2023-11-21T07:10:17;16.30;;;11.30;;
80247;SDS011;69560;52.206;21.018;2023-11-21T07:12:43;16.70;;;12.50;;
80247;SDS011;69560;52.206;21.018;2023-11-21T07:15:48;16.60;;;12.70;;
80247;SDS011;69560;52.206;21.018;2023-11-21T07:18:18;16.30;;;12.30;;
80247;SDS011;69560;52.206;21.018;2023-11-21T07:20:45;20.60;;;13.10;;
80247;SDS011;69560;52.206;21.018;2023-11-21T07:23:15;18.90;;;14.00;;
80247;SDS011;69560;52.206;21.018;2023-11-21T07:25:42;17.80;;;13.80;;
80247;SDS011;69560;52.206;21.018;2023-11-21T07:28:09;17.00;;;13.00;;
80247;SDS011;69560;52.206;21.018;2023-11-21T07:30:36;19.20;;;13.40;;
80247;SDS011;69560;52.206;21.018;2023-11-21T07:33:05;18.40;;;13.90;;
80247;SDS011;69560;52.206;21.018;2023-11-21T07:35:37;19.20;;;14.10;;
80247;SDS011;69560;52.206;21.018;2023-11-21T07:38:11;18.20;;;13.40;;
80247;SDS011;69560;52.206;21.018;2023-11-21T07:40:43;23.00;;;13.80;;
80247;SDS011;69560;52.206;21.018;2023-11-21T07:44:09;18.30;;;13.60;;
80247;SDS011;69560;52.206;21.018;2023-11-21T07:46:35;17.70;;;12.50;;
80247;SDS011;69560;52.206;21.018;2023-11-21T07:49:02;20.00;;;13.70;;
80247;SDS011;69560;52.206;21.018;2023-11-21T07:51:29;20.40;;;14.50;;
80247;SDS011;69560;52.206;21.018;2023-11-21T07:54:05;21.60;;;15.40;;
80247;SDS011;69560;52.206;21.018;2023-11-21T07:56:35;23.20;;;16.10;;
80247;SDS011;69560;52.206;21.018;2023-11-21T07:59:01;20.00;;;14.10;;
80247;SDS011;69560;52.206;21.018;2023-11-21T08:01:29;22.70;;;14.30;;
80247;SDS011;69560;52.206;21.018;2023-11-21T08:04:11;21.60;;;16.30;;
80247;SDS011;69560;52.206;21.018;2023-11-21T08:06:39;20.90;;;15.50;;
80247;SDS011;69560;52.206;21.018;2023-11-21T08:09:10;20.90;;;14.20;;
80247;SDS011;69560;52.206;21.018;2023-11-21T08:11:42;21.20;;;14.80;;
80247;SDS011;69560;52.206;21.018;2023-11-21T08:14:09;18.30;;;13.30;;
80247;SDS011;69560;52.206;21.018;2023-11-21T08:16:35;19.50;;;12.70;;
80247;SDS011;69560;52.206;21.018;2023-11-21T08:19:02;17.30;;;12.90;;
80247;SDS011;69560;52.206;21.018;2023-11-21T08:21:29;21.30;;;13.20;;
80247;SDS011;69560;52.206;21.018;2023-11-21T08:23:57;18.50;;;12.60;;
80247;SDS011;69560;52.206;21.018;2023-11-21T08:26:23;18.00;;;12.40;;
80247;SDS011;69560;52.206;21.018;2023-11-21T08:28:50;22.00;;;13.10;;
80247;SDS011;69560;52.206;21.018;2023-11-21T08:31:23;20.60;;;14.40;;
80247;SDS011;69560;52.206;21.018;2023-11-21T08:33:54;19.70;;;13.90;;
80247;SDS011;69560;52.206;21.018;2023-11-21T08:36:25;22.20;;;14.40;;
80247;SDS011;69560;52.206;21.018;2023-11-21T08:38:52;23.40;;;16.30;;
80247;SDS011;69560;52.206;21.018;2023-11-21T08:41:18;22.30;;;15.30;;
80247;SDS011;69560;52.206;21.018;2023-11-21T08:43:48;20.00;;;14.50;;
80247;SDS011;69560;52.206;21.018;2023-11-21T08:46:16;21.10;;;15.10;;
80247;SDS011;69560;52.206;21.018;2023-11-21T08:48:46;22.30;;;15.00;;
80247;SDS011;69560;52.206;21.018;2023-11-21T08:51:13;22.00;;;14.80;;
80247;SDS011;69560;52.206;21.018;2023-11-21T08:53:40;21.20;;;16.00;;
80247;SDS011;69560;52.206;21.018;2023-11-21T08:56:07;19.00;;;14.00;;
80247;SDS011;69560;52.206;21.018;2023-11-21T08:58:35;19.80;;;14.30;;
80247;SDS011;69560;52.206;21.018;2023-11-21T09:01:03;18.10;;;14.00;;
80247;SDS011;69560;52.206;21.018;2023-11-21T09:03:30;19.40;;;13.80;;
80247;SDS011;69560;52.206;21.018;2023-11-21T09:05:58;21.00;;;14.50;;
80247;SDS011;69560;52.206;21.018;2023-11-21T09:08:25;19.00;;;14.50;;
80247;SDS011;69560;52.206;21.018;2023-11-21T09:10:54;21.70;;;15.70;;
80247;SDS011;69560;52.206;21.018;2023-11-21T09:13:39;20.10;;;15.20;;
80247;SDS011;69560;52.206;21.018;2023-11-21T09:16:08;21.60;;;15.90;;
80247;SDS011;69560;52.206;21.018;2023-11-21T09:18:36;21.60;;;15.60;;
80247;SDS011;69560;52.206;21.018;2023-11-21T09:21:02;21.80;;;15.30;;
80247;SDS011;69560;52.206;21.018;2023-11-21T09:23:32;19.10;;;15.00;;
80247;SDS011;69560;52.206;21.018;2023-11-21T09:26:17;19.80;;;15.20;;
80247;SDS011;69560;52.206;21.018;2023-11-21T09:28:44;22.40;;;16.30;;
80247;SDS011;69560;52.206;21.018;2023-11-21T09:31:13;24.40;;;16.10;;
80247;SDS011;69560;52.206;21.018;2023-11-21T09:33:43;22.60;;;16.60;;
80247;SDS011;69560;52.206;21.018;2023-11-21T09:36:13;23.90;;;15.60;;
80247;SDS011;69560;52.206;21.018;2023-11-21T09:38:43;23.20;;;16.30;;
80247;SDS011;69560;52.206;21.018;2023-11-21T09:41:13;19.30;;;15.10;;
80247;SDS011;69560;52.206;21.018;2023-11-21T09:43:55;20.00;;;14.60;;
80247;SDS011;69560;52.206;21.018;2023-11-21T09:46:25;20.30;;;14.10;;
80247;SDS011;69560;52.206;21.018;2023-11-21T09:48:54;21.30;;;14.10;;
80247;SDS011;69560;52.206;21.018;2023-11-21T09:51:34;23.40;;;15.10;;
80247;SDS011;69560;52.206;21.018;2023-11-21T09:54:08;24.50;;;16.30;;
80247;SDS011;69560;52.206;21.018;2023-11-21T09:56:38;22.30;;;15.30;;
80247;SDS011;69560;52.206;21.018;2023-11-21T09:59:05;25.40;;;16.90;;
80247;SDS011;69560;52.206;21.018;2023-11-21T10:01:35;23.90;;;16.60;;
80247;SDS011;69560;52.206;21.018;2023-11-21T10:04:03;26.30;;;17.40;;
80247;SDS011;69560;52.206;21.018;2023-11-21T10:06:32;25.60;;;16.70;;
80247;SDS011;69560;52.206;21.018;2023-11-21T10:09:00;20.50;;;15.40;;
80247;SDS011;69560;52.206;21.018;2023-11-21T10:11:27;22.50;;;16.00;;
80247;SDS011;69560;52.206;21.018;2023-11-21T10:13:56;23.00;;;15.50;;
80247;SDS011;69560;52.206;21.018;2023-11-21T10:16:26;21.10;;;15.50;;
80247;SDS011;69560;52.206;21.018;2023-11-21T10:18:54;20.20;;;14.30;;
80247;SDS011;69560;52.206;21.018;2023-11-21T10:21:22;19.60;;;14.70;;
80247;SDS011;69560;52.206;21.018;2023-11-21T10:23:48;22.20;;;15.30;;
80247;SDS011;69560;52.206;21.018;2023-11-21T10:26:47;19.90;;;14.60;;
80247;SDS011;69560;52.206;21.018;2023-11-21T10:29:15;21.90;;;16.00;;
80247;SDS011;69560;52.206;21.018;2023-11-21T10:31:45;19.00;;;13.50;;
80247;SDS011;69560;52.206;21.018;2023-11-21T10:34:16;23.40;;;16.60;;
80247;SDS011;69560;52.206;21.018;2023-11-21T10:36:44;20.90;;;15.40;;
80247;SDS011;69560;52.206;21.018;2023-11-21T10:39:20;21.20;;;15.70;;
80247;SDS011;69560;52.206;21.018;2023-11-21T10:51:08;21.40;;;15.70;;
80247;SDS011;69560;52.206;21.018;2023-11-21T10:53:39;23.10;;;16.80;;
80247;SDS011;69560;52.206;21.018;2023-11-21T10:56:09;26.10;;;17.30;;
80247;SDS011;69560;52.206;21.018;2023-11-21T10:58:49;25.30;;;16.70;;
80247;SDS011;69560;52.206;21.018;2023-11-21T11:01:19;24.40;;;17.30;;
80247;SDS011;69560;52.206;21.018;2023-11-21T11:03:49;25.10;;;16.80;;
80247;SDS011;69560;52.206;21.018;2023-11-21T11:06:21;25.70;;;16.30;;
80247;SDS011;69560;52.206;21.018;2023-11-21T11:08:52;24.00;;;17.20;;
80247;SDS011;69560;52.206;21.018;2023-11-21T11:11:21;23.40;;;16.30;;
80247;SDS011;69560;52.206;21.018;2023-11-21T11:13:48;23.40;;;16.00;;
80247;SDS011;69560;52.206;21.018;2023-11-21T11:16:16;25.20;;;17.60;;
80247;SDS011;69560;52.206;21.018;2023-11-21T11:18:44;22.60;;;17.00;;
80247;SDS011;69560;52.206;21.018;2023-11-21T11:27:01;25.00;;;17.00;;
80247;SDS011;69560;52.206;21.018;2023-11-21T11:32:29;25.70;;;17.10;;
80247;SDS011;69560;52.206;21.018;2023-11-21T11:38:09;24.70;;;17.60;;
80247;SDS011;69560;52.206;21.018;2023-11-21T11:40:54;28.20;;;18.50;;
80247;SDS011;69560;52.206;21.018;2023-11-21T11:43:24;22.40;;;15.80;;
80247;SDS011;69560;52.206;21.018;2023-11-21T11:45:55;25.00;;;17.90;;
80247;SDS011;69560;52.206;21.018;2023-11-21T11:48:22;25.00;;;17.70;;
80247;SDS011;69560;52.206;21.018;2023-11-21T11:53:47;24.50;;;17.30;;
80247;SDS011;69560;52.206;21.018;2023-11-21T11:56:24;22.90;;;16.60;;
80247;SDS011;69560;52.206;21.018;2023-11-21T11:58:53;22.70;;;17.00;;
80247;SDS011;69560;52.206;21.018;2023-11-21T12:01:23;23.80;;;17.20;;
80247;SDS011;69560;52.206;21.018;2023-11-21T12:06:43;25.40;;;17.90;;
80247;SDS011;69560;52.206;21.018;2023-11-21T12:09:17;28.70;;;18.60;;
80247;SDS011;69560;52.206;21.018;2023-11-21T12:11:45;26.20;;;16.90;;
80247;SDS011;69560;52.206;21.018;2023-11-21T12:14:13;23.10;;;16.80;;
80247;SDS011;69560;52.206;21.018;2023-11-21T12:16:40;28.30;;;18.80;;
80247;SDS011;69560;52.206;21.018;2023-11-21T12:19:12;27.00;;;17.60;;
80247;SDS011;69560;52.206;21.018;2023-11-21T12:21:39;28.90;;;17.70;;
80247;SDS011;69560;52.206;21.018;2023-11-21T12:24:10;27.10;;;18.40;;
80247;SDS011;69560;52.206;21.018;2023-11-21T12:26:40;29.20;;;19.00;;
80247;SDS011;69560;52.206;21.018;2023-11-21T12:29:08;25.20;;;17.70;;
80247;SDS011;69560;52.206;21.018;2023-11-21T12:31:36;26.60;;;17.90;;
80247;SDS011;69560;52.206;21.018;2023-11-21T12:34:03;27.70;;;18.10;;
80247;SDS011;69560;52.206;21.018;2023-11-21T12:36:30;24.60;;;17.10;;
80247;SDS011;69560;52.206;21.018;2023-11-21T12:38:57;24.30;;;16.50;;
80247;SDS011;69560;52.206;21.018;2023-11-21T12:41:23;28.00;;;18.30;;
80247;SDS011;69560;52.206;21.018;2023-11-21T12:43:50;26.70;;;18.00;;
80247;SDS011;69560;52.206;21.018;2023-11-21T12:46:16;29.00;;;18.00;;
80247;SDS011;69560;52.206;21.018;2023-11-21T12:48:44;25.00;;;17.90;;
80247;SDS011;69560;52.206;21.018;2023-11-21T12:51:14;28.70;;;18.90;;
80247;SDS011;69560;52.206;21.018;2023-11-21T12:56:24;27.50;;;18.80;;
80247;SDS011;69560;52.206;21.018;2023-11-21T12:58:54;28.40;;;18.20;;
80247;SDS011;69560;52.206;21.018;2023-11-21T13:01:25;30.90;;;19.60;;
80247;SDS011;69560;52.206;21.018;2023-11-21T13:03:56;27.70;;;19.40;;
80247;SDS011;69560;52.206;21.018;2023-11-21T13:06:32;26.10;;;19.10;;
80247;SDS011;69560;52.206;21.018;2023-11-21T13:09:15;30.40;;;20.00;;
80247;SDS011;69560;52.206;21.018;2023-11-21T13:11:47;28.40;;;19.70;;
80247;SDS011;69560;52.206;21.018;2023-11-21T13:17:25;28.40;;;19.10;;
80247;SDS011;69560;52.206;21.018;2023-11-21T13:19:52;27.50;;;19.30;;
80247;SDS011;69560;52.206;21.018;2023-11-21T13:31:18;25.90;;;17.60;;
80247;SDS011;69560;52.206;21.018;2023-11-21T13:34:23;25.00;;;18.00;;
80247;SDS011;69560;52.206;21.018;2023-11-21T13:36:54;27.70;;;18.10;;
80247;SDS011;69560;52.206;21.018;2023-11-21T13:39:25;30.40;;;19.10;;
80247;SDS011;69560;52.206;21.018;2023-11-21T13:41:54;29.00;;;19.30;;
80247;SDS011;69560;52.206;21.018;2023-11-21T13:44:23;27.20;;;19.40;;
80247;SDS011;69560;52.206;21.018;2023-11-21T13:47:05;28.70;;;19.40;;
80247;SDS011;69560;52.206;21.018;2023-11-21T13:49:32;29.80;;;20.00;;
80247;SDS011;69560;52.206;21.018;2023-11-21T13:52:06;27.70;;;19.50;;
80247;SDS011;69560;52.206;21.018;2023-11-21T13:55:01;44.90;;;32.40;;
80247;SDS011;69560;52.206;21.018;2023-11-21T13:57:53;61.00;;;37.80;;
80247;SDS011;69560;52.206;21.018;2023-11-21T14:04:12;30.30;;;20.30;;
80247;SDS011;69560;52.206;21.018;2023-11-21T14:06:39;28.50;;;19.40;;
80247;SDS011;69560;52.206;21.018;2023-11-21T14:12:21;31.00;;;19.60;;
80247;SDS011;69560;52.206;21.018;2023-11-21T14:14:48;29.50;;;20.30;;
80247;SDS011;69560;52.206;21.018;2023-11-21T14:17:15;31.50;;;22.80;;
80247;SDS011;69560;52.206;21.018;2023-11-21T14:22:49;33.40;;;22.60;;
80247;SDS011;69560;52.206;21.018;2023-11-21T14:25:20;30.80;;;22.40;;
80247;SDS011;69560;52.206;21.018;2023-11-21T14:27:49;35.30;;;23.30;;
80247;SDS011;69560;52.206;21.018;2023-11-21T14:30:22;34.00;;;24.00;;
80247;SDS011;69560;52.206;21.018;2023-11-21T14:32:49;33.30;;;23.40;;
80247;SDS011;69560;52.206;21.018;2023-11-21T14:35:16;35.20;;;26.10;;
80247;SDS011;69560;52.206;21.018;2023-11-21T14:37:47;38.30;;;25.80;;
80247;SDS011;69560;52.206;21.018;2023-11-21T14:40:23;38.90;;;26.30;;
80247;SDS011;69560;52.206;21.018;2023-11-21T14:43:16;37.20;;;25.00;;
80247;SDS011;69560;52.206;21.018;2023-11-21T14:45:45;35.30;;;25.20;;
80247;SDS011;69560;52.206;21.018;2023-11-21T14:48:11;35.60;;;25.20;;
80247;SDS011;69560;52.206;21.018;2023-11-21T14:51:27;34.00;;;23.50;;
80247;SDS011;69560;52.206;21.018;2023-11-21T14:53:58;35.00;;;23.20;;
80247;SDS011;69560;52.206;21.018;2023-11-21T14:56:47;32.20;;;23.70;;
80247;SDS011;69560;52.206;21.018;2023-11-21T14:59:14;33.30;;;22.30;;
80247;SDS011;69560;52.206;21.018;2023-11-21T15:01:42;35.60;;;22.50;;
80247;SDS011;69560;52.206;21.018;2023-11-21T15:04:19;35.50;;;23.80;;
80247;SDS011;69560;52.206;21.018;2023-11-21T15:07:27;37.00;;;24.60;;
80247;SDS011;69560;52.206;21.018;2023-11-21T15:09:56;35.10;;;24.70;;
80247;SDS011;69560;52.206;21.018;2023-11-21T15:12:23;36.20;;;25.50;;
80247;SDS011;69560;52.206;21.018;2023-11-21T15:20:55;36.90;;;25.00;;
80247;SDS011;69560;52.206;21.018;2023-11-21T15:23:35;37.00;;;25.80;;
80247;SDS011;69560;52.206;21.018;2023-11-21T15:26:02;40.00;;;26.40;;
80247;SDS011;69560;52.206;21.018;2023-11-21T15:28:31;35.00;;;24.60;;
80247;SDS011;69560;52.206;21.018;2023-11-21T15:30:58;39.20;;;25.20;;
80247;SDS011;69560;52.206;21.018;2023-11-21T15:33:25;35.10;;;25.00;;
80247;SDS011;69560;52.206;21.018;2023-11-21T15:39:30;130.90;;;83.00;;
80247;SDS011;69560;52.206;21.018;2023-11-21T15:41:57;49.00;;;30.80;;
80247;SDS011;69560;52.206;21.018;2023-11-21T15:44:27;33.50;;;23.00;;
80247;SDS011;69560;52.206;21.018;2023-11-21T15:46:54;32.50;;;22.30;;